Time,TemperatureF,DewpointF,PressureIn,WindDirection,WindDirectionDegrees,WindSpeedMPH,WindSpeedGustMPH,Humidity,HourlyPrecipIn,Conditions,Clouds,dailyrainin,SoftwareType,DateUTC
2013-07-31 00:12:00,70.3,41.0,30.03,West,268,13.0,23.0,35,0.00,,,0.00,weatherlink.com 1.10,2013-07-31 07:12:00,
2013-07-31 00:27:00,70.5,42.0,30.03,West,271,12.0,20.0,36,0.00,,,0.00,weatherlink.com 1.10,2013-07-31 07:27:00,
2013-07-31 00:42:00,70.2,43.0,30.03,West,271,8.0,16.0,37,0.00,,,0.00,weatherlink.com 1.10,2013-07-31 07:42:00,
2013-07-31 00:57:00,70.1,44.0,30.03,West,273,8.0,13.0,39,0.00,,,0.00,weatherlink.com 1.10,2013-07-31 07:57:00,
2013-07-31 01:13:00,69.3,44.0,30.02,West,269,1.0,9.0,40,0.00,,,0.00,weatherlink.com 1.10,2013-07-31 08:13:00,
2013-07-31 01:29:00,67.6,44.0,30.02,WNW,282,2.0,7.0,43,0.00,,,0.00,weatherlink.com 1.10,2013-07-31 08:29:00,
2013-07-31 01:43:00,69.5,45.0,30.02,WNW,301,5.0,14.0,41,0.00,,,0.00,weatherlink.com 1.10,2013-07-31 08:43:00,
2013-07-31 01:58:00,69.5,45.0,30.02,West,276,1.0,11.0,42,0.00,,,0.00,weatherlink.com 1.10,2013-07-31 08:58:00,
2013-07-31 02:13:00,69.6,46.0,30.01,WNW,297,4.0,13.0,43,0.00,,,0.00,weatherlink.com 1.10,2013-07-31 09:13:00,
2013-07-31 02:28:00,70.0,45.0,30.01,West,271,11.0,15.0,41,0.00,,,0.00,weatherlink.com 1.10,2013-07-31 09:28:00,
2013-07-31 02:43:00,69.7,45.0,30.01,WSW,253,7.0,13.0,41,0.00,,,0.00,weatherlink.com 1.10,2013-07-31 09:43:00,
2013-07-31 02:58:00,69.7,45.0,30.00,WSW,247,9.0,15.0,42,0.00,,,0.00,weatherlink.com 1.10,2013-07-31 09:58:00,
2013-07-31 03:13:00,70.1,45.0,30.00,West,263,9.0,14.0,41,0.00,,,0.00,weatherlink.com 1.10,2013-07-31 10:13:00,
2013-07-31 03:29:00,70.0,45.0,30.00,West,278,7.0,9.0,41,0.00,,,0.00,weatherlink.com 1.10,2013-07-31 10:29:00,
2013-07-31 03:43:00,69.7,45.0,30.00,West,273,12.0,13.0,42,0.00,,,0.00,weatherlink.com 1.10,2013-07-31 10:43:00,
2013-07-31 03:58:00,70.0,44.0,30.00,WNW,282,8.0,17.0,40,0.00,,,0.00,weatherlink.com 1.10,2013-07-31 10:58:00,
2013-07-31 04:13:00,70.1,45.0,30.00,WSW,245,11.0,17.0,41,0.00,,,0.00,weatherlink.com 1.10,2013-07-31 11:13:00,
2013-07-31 04:28:00,69.9,46.0,30.00,West,266,11.0,18.0,43,0.00,,,0.00,weatherlink.com 1.10,2013-07-31 11:28:00,
2013-07-31 04:43:00,70.1,45.0,30.00,WNW,299,4.0,15.0,41,0.00,,,0.00,weatherlink.com 1.10,2013-07-31 11:43:00,
2013-07-31 04:58:00,68.5,44.0,30.00,ENE,68,3.0,7.0,42,0.00,,,0.00,weatherlink.com 1.10,2013-07-31 11:58:00,
2013-07-31 05:13:00,68.5,42.0,30.00,NW,312,2.0,9.0,39,0.00,,,0.00,weatherlink.com 1.10,2013-07-31 12:13:00,
2013-07-31 05:28:00,66.0,44.0,30.00,NNW,345,1.0,3.0,45,0.00,,,0.00,weatherlink.com 1.10,2013-07-31 12:28:00,
2013-07-31 05:43:00,67.7,42.0,30.01,West,269,9.0,9.0,40,0.00,,,0.00,weatherlink.com 1.10,2013-07-31 12:43:00,
2013-07-31 05:58:00,69.2,43.0,30.01,West,276,12.0,14.0,39,0.00,,,0.00,weatherlink.com 1.10,2013-07-31 12:58:00,
2013-07-31 06:13:00,69.0,44.0,30.01,West,260,13.0,15.0,40,0.00,,,0.00,weatherlink.com 1.10,2013-07-31 13:13:00,
2013-07-31 06:28:00,69.3,44.0,30.01,West,267,7.0,15.0,41,0.00,,,0.00,weatherlink.com 1.10,2013-07-31 13:28:00,
2013-07-31 06:43:00,68.6,44.0,30.01,NE,48,0.0,2.0,42,0.00,,,0.00,weatherlink.com 1.10,2013-07-31 13:43:00,
2013-07-31 06:58:00,72.4,44.0,30.02,ENE,65,1.0,2.0,36,0.00,,,0.00,weatherlink.com 1.10,2013-07-31 13:58:00,
2013-07-31 07:14:00,72.3,45.0,30.02,ENE,65,0.0,2.0,38,0.00,,,0.00,weatherlink.com 1.10,2013-07-31 14:14:00,
2013-07-31 07:28:00,71.2,45.0,30.02,WNW,299,0.0,3.0,39,0.00,,,0.00,weatherlink.com 1.10,2013-07-31 14:28:00,
2013-07-31 07:43:00,73.1,45.0,30.03,ENE,70,0.0,2.0,37,0.00,,,0.00,weatherlink.com 1.10,2013-07-31 14:43:00,
2013-07-31 07:58:00,75.1,46.0,30.03,WNW,293,0.0,4.0,35,0.00,,,0.00,weatherlink.com 1.10,2013-07-31 14:58:00,
2013-07-31 08:13:00,76.0,45.0,30.03,West,278,0.0,3.0,33,0.00,,,0.00,weatherlink.com 1.10,2013-07-31 15:13:00,
2013-07-31 08:28:00,77.0,42.0,30.03,SE,146,1.0,3.0,29,0.00,,,0.00,weatherlink.com 1.10,2013-07-31 15:28:00,
2013-07-31 08:43:00,78.3,45.0,30.03,NW,306,0.0,5.0,31,0.00,,,0.00,weatherlink.com 1.10,2013-07-31 15:43:00,
2013-07-31 08:58:00,80.1,43.0,30.03,ENE,70,5.0,7.0,27,0.00,,,0.00,weatherlink.com 1.10,2013-07-31 15:58:00,
2013-07-31 09:13:00,80.9,43.0,30.03,NE,44,3.0,5.0,26,0.00,,,0.00,weatherlink.com 1.10,2013-07-31 16:13:00,
2013-07-31 09:28:00,81.7,44.0,30.02,North,349,1.0,5.0,26,0.00,,,0.00,weatherlink.com 1.10,2013-07-31 16:28:00,
2013-07-31 09:44:00,83.6,42.0,30.02,ENE,60,1.0,6.0,23,0.00,,,0.00,weatherlink.com 1.10,2013-07-31 16:44:00,
2013-07-31 09:59:00,84.7,42.0,30.03,ENE,63,2.0,5.0,22,0.00,,,0.00,weatherlink.com 1.10,2013-07-31 16:59:00,
2013-07-31 10:14:00,83.6,42.0,30.03,SW,234,3.0,7.0,23,0.00,,,0.00,weatherlink.com 1.10,2013-07-31 17:14:00,
2013-07-31 10:29:00,83.3,42.0,30.03,West,277,0.0,7.0,23,0.00,,,0.00,weatherlink.com 1.10,2013-07-31 17:29:00,
2013-07-31 10:44:00,83.8,42.0,30.02,SW,231,5.0,8.0,23,0.00,,,0.00,weatherlink.com 1.10,2013-07-31 17:44:00,
2013-07-31 10:59:00,83.7,40.0,30.02,South,181,1.0,9.0,21,0.00,,,0.00,weatherlink.com 1.10,2013-07-31 17:59:00,
2013-07-31 11:14:00,84.2,40.0,30.02,SSW,204,3.0,10.0,21,0.00,,,0.00,weatherlink.com 1.10,2013-07-31 18:14:00,
2013-07-31 11:29:00,86.3,41.0,30.02,SSW,208,4.0,10.0,20,0.00,,,0.00,weatherlink.com 1.10,2013-07-31 18:29:00,
2013-07-31 11:44:00,85.7,38.0,30.02,West,269,1.0,11.0,18,0.00,,,0.00,weatherlink.com 1.10,2013-07-31 18:44:00,
2013-07-31 11:59:00,85.8,33.0,30.02,WNW,302,2.0,9.0,15,0.00,,,0.00,weatherlink.com 1.10,2013-07-31 18:59:00,
2013-07-31 12:14:00,85.3,39.0,30.01,SW,217,4.0,12.0,19,0.00,,,0.00,weatherlink.com 1.10,2013-07-31 19:14:00,
2013-07-31 12:29:00,86.2,38.0,30.00,West,273,5.0,9.0,18,0.00,,,0.00,weatherlink.com 1.10,2013-07-31 19:29:00,
2013-07-31 12:44:00,85.6,41.0,30.00,West,269,7.0,12.0,21,0.00,,,0.00,weatherlink.com 1.10,2013-07-31 19:44:00,
2013-07-31 12:59:00,84.7,43.0,30.00,WNW,283,8.0,13.0,23,0.00,,,0.00,weatherlink.com 1.10,2013-07-31 19:59:00,
2013-07-31 13:14:00,84.0,41.0,29.99,West,269,6.0,16.0,22,0.00,,,0.00,weatherlink.com 1.10,2013-07-31 20:14:00,
2013-07-31 13:29:00,84.9,44.0,29.99,West,276,8.0,15.0,24,0.00,,,0.00,weatherlink.com 1.10,2013-07-31 20:29:00,
2013-07-31 13:44:00,84.6,45.0,29.98,WNW,284,12.0,15.0,25,0.00,,,0.00,weatherlink.com 1.10,2013-07-31 20:44:00,
2013-07-31 13:59:00,84.4,46.0,29.98,West,272,10.0,16.0,26,0.00,,,0.00,weatherlink.com 1.10,2013-07-31 20:59:00,
2013-07-31 14:14:00,83.7,48.0,29.98,WSW,242,7.0,16.0,29,0.00,,,0.00,weatherlink.com 1.10,2013-07-31 21:14:00,
2013-07-31 14:29:00,83.2,49.0,29.98,West,278,12.0,17.0,30,0.00,,,0.00,weatherlink.com 1.10,2013-07-31 21:29:00,
2013-07-31 14:44:00,83.0,48.0,29.97,NW,311,15.0,23.0,29,0.00,,,0.00,weatherlink.com 1.10,2013-07-31 21:44:00,
2013-07-31 14:59:00,81.9,47.0,29.96,WNW,290,12.0,21.0,29,0.00,,,0.00,weatherlink.com 1.10,2013-07-31 21:59:00,
2013-07-31 15:14:00,81.9,46.0,29.96,SW,224,12.0,30.0,28,0.00,,,0.00,weatherlink.com 1.10,2013-07-31 22:14:00,
2013-07-31 15:29:00,81.9,46.0,29.96,WSW,257,10.0,19.0,28,0.00,,,0.00,weatherlink.com 1.10,2013-07-31 22:29:00,
2013-07-31 15:44:00,81.7,45.0,29.95,West,266,7.0,18.0,27,0.00,,,0.00,weatherlink.com 1.10,2013-07-31 22:44:00,
2013-07-31 15:59:00,80.5,43.0,29.95,WSW,241,12.0,23.0,26,0.00,,,0.00,weatherlink.com 1.10,2013-07-31 22:59:00,
2013-07-31 16:14:00,79.8,45.0,29.95,West,259,11.0,23.0,29,0.00,,,0.00,weatherlink.com 1.10,2013-07-31 23:14:00,
2013-07-31 16:29:00,80.6,41.0,29.95,WSW,245,7.0,21.0,24,0.00,,,0.00,weatherlink.com 1.10,2013-07-31 23:29:00,
2013-07-31 16:44:00,80.6,41.0,29.95,West,265,4.0,23.0,24,0.00,,,0.00,weatherlink.com 1.10,2013-07-31 23:44:00,
2013-07-31 16:59:00,80.3,40.0,29.95,NW,307,12.0,20.0,24,0.00,,,0.00,weatherlink.com 1.10,2013-07-31 23:59:00,
2013-07-31 17:15:00,78.6,40.0,29.95,West,267,10.0,19.0,25,0.00,,,0.00,weatherlink.com 1.10,2013-08-01 00:15:00,
2013-07-31 17:29:00,78.3,42.0,29.95,West,266,5.0,18.0,27,0.00,,,0.00,weatherlink.com 1.10,2013-08-01 00:29:00,
2013-07-31 17:44:00,76.9,44.0,29.94,West,273,15.0,20.0,31,0.00,,,0.00,weatherlink.com 1.10,2013-08-01 00:44:00,
2013-07-31 17:59:00,76.4,44.0,29.93,West,272,16.0,21.0,32,0.00,,,0.00,weatherlink.com 1.10,2013-08-01 00:59:00,
2013-07-31 18:14:00,75.9,45.0,29.93,West,267,12.0,19.0,33,0.00,,,0.00,weatherlink.com 1.10,2013-08-01 01:14:00,
2013-07-31 18:29:00,75.5,46.0,29.93,West,267,6.0,17.0,35,0.00,,,0.00,weatherlink.com 1.10,2013-08-01 01:29:00,
2013-07-31 18:44:00,74.7,45.0,29.93,West,271,10.0,18.0,35,0.00,,,0.00,weatherlink.com 1.10,2013-08-01 01:44:00,
2013-07-31 18:59:00,74.0,44.0,29.93,WSW,255,11.0,21.0,34,0.00,,,0.00,weatherlink.com 1.10,2013-08-01 01:59:00,
2013-07-31 19:15:00,72.9,42.0,29.93,WNW,288,9.0,22.0,33,0.00,,,0.00,weatherlink.com 1.10,2013-08-01 02:15:00,
2013-07-31 19:30:00,72.2,41.0,29.93,SW,226,12.0,19.0,33,0.00,,,0.00,weatherlink.com 1.10,2013-08-01 02:30:00,
2013-07-31 19:45:00,70.5,44.0,29.95,West,272,2.0,16.0,39,0.00,,,0.00,weatherlink.com 1.10,2013-08-01 02:45:00,
2013-07-31 20:00:00,69.0,45.0,29.95,NW,311,1.0,5.0,43,0.00,,,0.00,weatherlink.com 1.10,2013-08-01 03:00:00,
2013-07-31 20:15:00,67.8,47.0,29.95,WNW,295,4.0,10.0,48,0.00,,,0.00,weatherlink.com 1.10,2013-08-01 03:15:00,
2013-07-31 20:30:00,67.3,47.0,29.95,West,262,7.0,15.0,48,0.00,,,0.00,weatherlink.com 1.10,2013-08-01 03:30:00,
2013-07-31 20:45:00,68.6,38.0,29.96,West,270,20.0,21.0,33,0.00,,,0.00,weatherlink.com 1.10,2013-08-01 03:45:00,
2013-07-31 21:00:00,69.7,39.0,29.96,West,266,15.0,20.0,33,0.00,,,0.00,weatherlink.com 1.10,2013-08-01 04:00:00,
2013-07-31 21:15:00,70.2,38.0,29.97,West,264,15.0,20.0,31,0.00,,,0.00,weatherlink.com 1.10,2013-08-01 04:15:00,
2013-07-31 21:30:00,70.0,38.0,29.97,West,264,9.0,20.0,31,0.00,,,0.00,weatherlink.com 1.10,2013-08-01 04:30:00,
2013-07-31 21:45:00,70.2,36.0,29.97,West,260,17.0,19.0,29,0.00,,,0.00,weatherlink.com 1.10,2013-08-01 04:45:00,
2013-07-31 22:00:00,70.4,37.0,29.97,West,261,11.0,18.0,29,0.00,,,0.00,weatherlink.com 1.10,2013-08-01 05:00:00,
2013-07-31 22:15:00,69.4,37.0,29.98,West,275,7.0,14.0,31,0.00,,,0.00,weatherlink.com 1.10,2013-08-01 05:15:00,
2013-07-31 22:30:00,70.4,34.0,29.97,West,274,11.0,18.0,26,0.00,,,0.00,weatherlink.com 1.10,2013-08-01 05:30:00,
2013-07-31 22:45:00,71.2,33.0,29.97,West,269,12.0,18.0,24,0.00,,,0.00,weatherlink.com 1.10,2013-08-01 05:45:00,
2013-07-31 23:00:00,71.8,30.0,29.97,West,273,14.0,18.0,21,0.00,,,0.00,weatherlink.com 1.10,2013-08-01 06:00:00,
2013-07-31 23:15:00,73.5,23.0,29.97,WSW,254,11.0,15.0,15,0.00,,,0.00,weatherlink.com 1.10,2013-08-01 06:15:00,
2013-07-31 23:30:00,74.0,16.0,29.97,West,268,8.0,12.0,11,0.00,,,0.00,weatherlink.com 1.10,2013-08-01 06:30:00,
2013-07-31 23:45:00,73.6,20.0,29.97,West,276,6.0,11.0,13,0.00,,,0.00,weatherlink.com 1.10,2013-08-01 06:45:00,